Time;durP1;ratioP1;P1;durP2;ratioP2;P2;SDS_P1;SDS_P2;PMS_P1;PMS_P2;Temp;Humidity;BMP_temperature;BMP_pressure;BME280_temperature;BME280_humidity;BME280_pressure;Samples;Min_cycle;Max_cycle;Signal;HPM_P1;HPM_P2
2022/03/25 00:00:15;;;;;;;15.00;8.57;;;17.60;82.80;;;;;;1996948;28;20177;-73
2022/03/25 00:01:13;;;;;;;14.55;9.18;;;17.70;82.70;;;;;;1996956;28;20316;-75
2022/03/25 00:02:12;;;;;;;17.13;8.27;;;17.60;82.80;;;;;;1996863;28;20252;-75
2022/03/25 00:03:10;;;;;;;13.40;9.70;;;17.60;83.00;;;;;;1997052;28;20237;-74
2022/03/25 00:04:09;;;;;;;14.77;8.90;;;17.60;83.00;;;;;;1996939;28;20186;-74
2022/03/25 00:05:08;;;;;;;14.07;8.87;;;17.60;82.90;;;;;;1996888;28;20186;-74
2022/03/25 00:06:07;;;;;;;13.95;9.65;;;17.60;83.00;;;;;;1996780;28;20223;-74
2022/03/25 00:07:05;;;;;;;11.30;7.93;;;17.60;82.80;;;;;;1996917;28;20169;-74
2022/03/25 00:08:05;;;;;;;14.93;9.03;;;17.60;82.80;;;;;;1996944;28;20257;-75
2022/03/25 00:09:03;;;;;;;15.02;9.32;;;17.60;82.80;;;;;;1996841;28;20170;-74
2022/03/25 00:10:03;;;;;;;17.20;9.70;;;17.60;82.60;;;;;;1996894;28;20188;-74
2022/03/25 00:11:02;;;;;;;15.75;8.65;;;17.60;82.80;;;;;;1996830;28;20383;-75
2022/03/25 00:12:00;;;;;;;12.50;8.07;;;17.60;82.80;;;;;;1996800;28;20205;-74
2022/03/25 00:12:59;;;;;;;16.57;9.17;;;17.60;82.90;;;;;;1996747;28;20206;-74
2022/03/25 00:13:57;;;;;;;12.90;8.20;;;17.60;82.70;;;;;;1988483;28;20174;-74
2022/03/25 00:14:56;;;;;;;13.83;8.70;;;17.60;82.70;;;;;;1980753;29;20179;-74
2022/03/25 00:15:56;;;;;;;12.80;8.77;;;17.60;82.90;;;;;;1988023;28;20562;-74
2022/03/25 00:16:54;;;;;;;15.50;8.85;;;17.60;83.30;;;;;;1996450;28;20593;-74
2022/03/25 00:17:52;;;;;;;14.93;9.73;;;17.60;82.80;;;;;;1996914;28;20192;-75
2022/03/25 00:18:51;;;;;;;12.80;8.23;;;17.60;82.80;;;;;;1996630;28;20701;-74
2022/03/25 00:19:50;;;;;;;14.90;8.40;;;17.60;82.90;;;;;;1996733;28;20170;-74
2022/03/25 00:20:51;;;;;;;21.77;10.03;;;17.50;82.80;;;;;;1996842;28;20174;-74
2022/03/25 00:21:50;;;;;;;13.15;8.75;;;17.60;82.70;;;;;;1988241;28;20213;-75
2022/03/25 00:22:48;;;;;;;13.80;8.73;;;17.60;82.80;;;;;;1988465;28;20678;-74
2022/03/25 00:23:47;;;;;;;15.40;9.30;;;17.60;82.80;;;;;;1996214;28;20224;-74
2022/03/25 00:24:45;;;;;;;14.47;8.97;;;17.60;82.80;;;;;;1996769;28;20209;-74
2022/03/25 00:25:44;;;;;;;16.20;9.70;;;17.60;82.90;;;;;;1997021;28;20256;-74
2022/03/25 00:26:42;;;;;;;12.93;8.00;;;17.60;83.20;;;;;;1996768;28;20189;-74
2022/03/25 00:27:41;;;;;;;14.00;8.17;;;17.60;82.90;;;;;;1996852;28;20181;-74
2022/03/25 00:28:39;;;;;;;17.17;9.40;;;17.60;83.00;;;;;;1996761;28;20530;-74
2022/03/25 00:29:38;;;;;;;11.97;8.90;;;17.60;83.00;;;;;;1996873;28;20176;-74
2022/03/25 00:30:37;;;;;;;14.53;8.10;;;17.60;82.90;;;;;;1996698;28;20323;-74
2022/03/25 00:31:35;;;;;;;14.40;8.87;;;17.60;82.90;;;;;;1996570;28;20413;-74
2022/03/25 00:32:35;;;;;;;14.50;8.90;;;17.60;82.90;;;;;;1996578;28;20311;-74
2022/03/25 00:33:37;;;;;;;13.35;8.30;;;17.60;83.20;;;;;;1988430;28;20222;-74
2022/03/25 00:34:36;;;;;;;13.13;7.85;;;17.60;83.30;;;;;;1988568;28;20205;-75
2022/03/25 00:35:34;;;;;;;14.13;7.90;;;17.50;82.90;;;;;;1996802;28;20174;-74
2022/03/25 00:36:33;;;;;;;14.40;9.03;;;17.60;83.10;;;;;;1996870;28;20170;-73
2022/03/25 00:37:32;;;;;;;15.40;9.70;;;17.60;83.10;;;;;;1988515;28;20171;-74
2022/03/25 00:38:31;;;;;;;14.90;8.70;;;17.50;83.00;;;;;;1988410;28;20921;-75
2022/03/25 00:39:29;;;;;;;13.70;8.13;;;17.60;83.30;;;;;;1996248;28;20182;-74
2022/03/25 00:40:28;;;;;;;14.50;9.23;;;17.50;83.80;;;;;;1996945;28;20174;-74
2022/03/25 00:41:26;;;;;;;18.47;9.30;;;17.60;83.00;;;;;;1988281;28;20181;-75
2022/03/25 00:42:25;;;;;;;16.43;10.07;;;17.60;83.00;;;;;;1980162;28;20202;-74
2022/03/25 00:43:24;;;;;;;16.70;9.13;;;17.60;83.20;;;;;;1987760;28;20309;-75
2022/03/25 00:44:24;;;;;;;15.27;8.82;;;17.60;83.10;;;;;;1996239;28;20240;-74
2022/03/25 00:45:23;;;;;;;12.32;8.68;;;17.60;83.00;;;;;;1988325;28;20381;-75
2022/03/25 00:46:21;;;;;;;13.87;9.23;;;17.60;83.00;;;;;;1988392;28;20186;-74
2022/03/25 00:47:20;;;;;;;11.37;8.23;;;17.50;82.90;;;;;;1996322;28;20178;-74
2022/03/25 00:48:18;;;;;;;11.70;8.30;;;17.50;83.00;;;;;;1996819;28;20217;-75
2022/03/25 00:49:17;;;;;;;14.03;7.73;;;17.50;83.00;;;;;;1996599;28;20220;-74
2022/03/25 00:50:16;;;;;;;14.02;8.15;;;17.50;83.00;;;;;;1996672;28;20185;-75
2022/03/25 00:51:15;;;;;;;11.17;7.57;;;17.50;83.40;;;;;;1996646;28;20594;-74
2022/03/25 00:52:13;;;;;;;11.53;8.23;;;17.50;83.20;;;;;;1996536;28;20433;-74
2022/03/25 00:53:12;;;;;;;16.43;9.53;;;17.50;83.30;;;;;;1996571;28;20186;-74
2022/03/25 00:54:10;;;;;;;14.00;8.50;;;17.50;83.30;;;;;;1996447;28;20182;-73
2022/03/25 00:55:09;;;;;;;16.57;8.97;;;17.50;83.30;;;;;;1996472;28;20189;-73
2022/03/25 00:56:07;;;;;;;11.77;8.17;;;17.40;83.20;;;;;;1988602;28;20182;-74
2022/03/25 00:57:06;;;;;;;13.03;9.27;;;17.50;83.10;;;;;;1990097;28;20190;-74
2022/03/25 00:58:04;;;;;;;14.50;10.20;;;17.50;83.10;;;;;;1998212;28;20302;-74
2022/03/25 00:59:03;;;;;;;22.07;9.00;;;17.60;83.20;;;;;;1997669;28;20205;-74
2022/03/25 01:00:04;;;;;;;12.90;8.67;;;17.50;83.20;;;;;;2000012;28;20188;-74
2022/03/25 01:01:02;;;;;;;12.73;7.95;;;17.50;83.20;;;;;;2004420;28;20241;-74
2022/03/25 01:02:01;;;;;;;11.30;7.77;;;17.50;83.20;;;;;;2004124;28;20177;-74
2022/03/25 01:02:59;;;;;;;16.53;8.20;;;17.50;83.00;;;;;;2004719;28;20181;-75
2022/03/25 01:03:57;;;;;;;13.50;8.30;;;17.50;83.10;;;;;;1999232;28;20680;-74
2022/03/25 01:04:56;;;;;;;15.90;8.77;;;17.50;83.30;;;;;;1997695;28;20247;-74
2022/03/25 01:05:54;;;;;;;12.30;8.30;;;17.50;83.30;;;;;;1996871;28;20319;-74
2022/03/25 01:06:53;;;;;;;14.60;7.37;;;17.50;83.40;;;;;;1989123;28;20631;-73
2022/03/25 01:07:51;;;;;;;15.30;8.70;;;17.50;83.40;;;;;;1989168;28;20265;-73
2022/03/25 01:08:50;;;;;;;11.77;8.67;;;17.30;83.20;;;;;;1996854;28;20177;-74
2022/03/25 01:09:49;;;;;;;15.90;9.00;;;17.50;83.40;;;;;;1996655;28;20188;-73
2022/03/25 01:10:47;;;;;;;13.77;8.30;;;17.50;83.40;;;;;;1996667;28;20549;-73
2022/03/25 01:11:46;;;;;;;12.07;7.97;;;17.50;83.40;;;;;;1996638;28;20220;-74
2022/03/25 01:12:45;;;;;;;14.90;8.77;;;17.50;83.50;;;;;;1996683;28;20208;-73
2022/03/25 01:13:44;;;;;;;15.73;7.57;;;17.50;83.50;;;;;;1996500;28;20193;-74
2022/03/25 01:14:43;;;;;;;9.98;7.47;;;17.50;83.80;;;;;;1996667;28;20261;-73
2022/03/25 01:15:41;;;;;;;18.73;9.10;;;17.50;83.40;;;;;;1996479;28;20182;-73
2022/03/25 01:16:40;;;;;;;17.13;8.23;;;17.50;83.10;;;;;;1995855;28;20173;-73
2022/03/25 01:17:38;;;;;;;11.63;8.40;;;17.50;83.30;;;;;;1995877;28;20221;-74
2022/03/25 01:18:37;;;;;;;12.30;7.47;;;17.50;83.30;;;;;;1996307;28;20177;-74
2022/03/25 01:19:35;;;;;;;15.77;8.80;;;17.50;83.40;;;;;;1996706;28;20260;-74
2022/03/25 01:20:34;;;;;;;12.20;7.80;;;17.50;83.40;;;;;;1996492;28;20185;-75
2022/03/25 01:21:33;;;;;;;11.60;8.33;;;17.50;83.20;;;;;;1996568;28;20178;-74
2022/03/25 01:22:31;;;;;;;13.43;8.30;;;17.50;83.40;;;;;;1996752;28;20182;-74
2022/03/25 01:23:30;;;;;;;11.90;8.23;;;17.50;83.30;;;;;;1996491;28;20181;-74
2022/03/25 01:24:29;;;;;;;11.10;7.53;;;17.50;83.30;;;;;;1996483;28;20710;-74
2022/03/25 01:25:27;;;;;;;11.30;8.07;;;17.50;83.30;;;;;;1996565;28;20193;-75
2022/03/25 01:26:26;;;;;;;10.93;7.60;;;17.60;83.40;;;;;;1996533;28;20416;-74
2022/03/25 01:27:25;;;;;;;12.68;8.40;;;17.50;83.60;;;;;;1996469;28;20176;-74
2022/03/25 01:28:24;;;;;;;12.80;7.50;;;17.50;83.50;;;;;;1996463;28;20673;-74
2022/03/25 01:29:22;;;;;;;13.70;9.13;;;17.50;83.60;;;;;;1996262;28;20170;-74
2022/03/25 01:30:21;;;;;;;15.20;8.60;;;17.50;83.60;;;;;;1988045;28;20450;-74
2022/03/25 01:31:20;;;;;;;12.40;9.07;;;17.50;83.60;;;;;;1988251;28;20174;-74
2022/03/25 01:32:18;;;;;;;15.93;7.55;;;17.60;83.60;;;;;;1995687;28;20194;-74
2022/03/25 01:33:18;;;;;;;14.30;8.87;;;17.50;83.70;;;;;;1996645;28;20166;-74
2022/03/25 01:34:16;;;;;;;16.20;9.00;;;17.50;83.60;;;;;;1996700;28;20166;-74
2022/03/25 01:35:15;;;;;;;10.27;7.20;;;17.50;83.80;;;;;;1996505;28;20257;-74
2022/03/25 01:36:14;;;;;;;12.73;8.40;;;17.50;83.70;;;;;;1996461;28;20225;-76
2022/03/25 01:37:12;;;;;;;15.20;8.07;;;17.40;83.40;;;;;;1996503;28;20653;-75
2022/03/25 01:38:11;;;;;;;14.20;8.57;;;17.50;83.60;;;;;;1988072;28;20174;-74
2022/03/25 01:39:09;;;;;;;14.93;8.53;;;17.50;83.60;;;;;;1988307;28;20429;-74
2022/03/25 01:40:09;;;;;;;12.67;7.73;;;17.50;83.80;;;;;;1996021;28;20518;-74
2022/03/25 01:41:08;;;;;;;12.88;8.23;;;17.50;83.90;;;;;;1996386;28;20220;-74
2022/03/25 01:42:06;;;;;;;12.63;7.90;;;17.50;83.80;;;;;;1996518;28;20198;-74
2022/03/25 01:43:08;;;;;;;10.73;7.00;;;17.50;83.80;;;;;;1996416;28;20308;-74
2022/03/25 01:44:09;;;;;;;12.90;8.82;;;17.40;83.70;;;;;;1996472;28;20171;-74
2022/03/25 01:45:11;;;;;;;10.93;7.47;;;17.50;83.90;;;;;;1996474;28;20218;-74
2022/03/25 01:46:09;;;;;;;14.02;8.48;;;17.40;84.00;;;;;;1996402;28;20178;-74
2022/03/25 01:47:09;;;;;;;13.10;8.50;;;17.40;83.70;;;;;;1996519;28;20264;-74
2022/03/25 01:48:10;;;;;;;12.85;7.63;;;17.40;83.80;;;;;;1987984;28;20170;-74
2022/03/25 01:49:09;;;;;;;26.17;7.93;;;17.40;84.00;;;;;;1988086;28;20245;-74
2022/03/25 01:50:20;;;;;;;11.43;7.43;;;17.40;84.00;;;;;;1996421;28;20178;-73
2022/03/25 01:51:26;;;;;;;16.15;8.70;;;17.50;83.70;;;;;;1996523;28;20542;-74
2022/03/25 01:52:25;;;;;;;14.45;8.30;;;17.40;84.00;;;;;;1996402;28;20208;-74
2022/03/25 01:53:26;;;;;;;16.10;8.70;;;17.40;84.00;;;;;;1996208;28;20201;-74
2022/03/25 01:54:29;;;;;;;14.13;7.70;;;17.40;84.00;;;;;;1997296;28;20181;-74
2022/03/25 01:55:36;;;;;;;10.63;7.22;;;17.40;84.10;;;;;;1997831;28;20169;-74
2022/03/25 01:56:35;;;;;;;12.10;7.25;;;17.50;84.30;;;;;;1997861;28;20597;-75
2022/03/25 01:57:34;;;;;;;11.80;8.47;;;17.40;84.30;;;;;;1997876;28;20202;-73
2022/03/25 01:58:32;;;;;;;18.10;8.47;;;17.40;84.30;;;;;;1997848;28;20511;-73
2022/03/25 01:59:33;;;;;;;12.13;7.67;;;17.40;84.50;;;;;;1997894;28;20196;-73
2022/03/25 02:00:32;;;;;;;11.85;7.60;;;17.40;84.10;;;;;;1997972;28;20189;-74
2022/03/25 02:01:31;;;;;;;13.88;8.38;;;17.40;84.10;;;;;;1997745;28;20257;-75
2022/03/25 02:02:30;;;;;;;11.60;6.93;;;17.40;84.10;;;;;;1997918;28;20181;-75
2022/03/25 02:03:28;;;;;;;11.40;7.50;;;17.40;84.10;;;;;;1997772;28;20224;-75
2022/03/25 02:04:27;;;;;;;10.73;7.27;;;17.40;84.30;;;;;;1997830;28;20511;-74
2022/03/25 02:05:26;;;;;;;24.83;8.20;;;17.40;84.40;;;;;;1997589;28;20196;-74
2022/03/25 02:06:25;;;;;;;12.95;8.07;;;17.40;84.20;;;;;;1997752;28;20208;-75
2022/03/25 02:07:24;;;;;;;12.20;8.00;;;17.40;84.20;;;;;;1997702;28;20193;-74
2022/03/25 02:08:23;;;;;;;14.95;8.35;;;17.40;84.30;;;;;;1989332;28;20414;-74
2022/03/25 02:09:21;;;;;;;11.30;7.13;;;17.40;84.20;;;;;;1989324;28;20234;-75
2022/03/25 02:10:20;;;;;;;12.60;7.67;;;17.40;84.10;;;;;;1996685;28;20261;-74
2022/03/25 02:11:18;;;;;;;12.93;8.40;;;17.40;84.10;;;;;;1989425;28;20507;-74
2022/03/25 02:12:17;;;;;;;13.40;8.00;;;17.40;84.10;;;;;;1989388;28;20554;-74
2022/03/25 02:13:16;;;;;;;16.33;8.90;;;17.40;84.30;;;;;;1997547;28;20181;-74
2022/03/25 02:14:16;;;;;;;13.33;8.20;;;17.40;84.40;;;;;;1998012;28;20178;-75
2022/03/25 02:15:15;;;;;;;8.75;7.10;;;17.40;84.10;;;;;;1989383;28;20662;-75
2022/03/25 02:16:14;;;;;;;12.48;8.13;;;17.40;84.30;;;;;;1989332;28;20182;-74
2022/03/25 02:17:12;;;;;;;15.40;8.93;;;17.40;84.00;;;;;;1997232;28;20170;-75
2022/03/25 02:18:14;;;;;;;11.73;7.30;;;17.40;84.20;;;;;;1997612;28;20173;-74
2022/03/25 02:19:16;;;;;;;12.23;7.82;;;17.40;84.10;;;;;;1997791;28;20172;-74
2022/03/25 02:20:15;;;;;;;10.10;7.47;;;17.40;84.50;;;;;;1989240;28;20639;-74
2022/03/25 02:21:13;;;;;;;11.33;7.57;;;17.40;84.40;;;;;;1989331;28;20309;-74
2022/03/25 02:22:12;;;;;;;10.37;7.03;;;17.40;84.30;;;;;;1997114;28;20264;-75
2022/03/25 02:23:11;;;;;;;13.30;8.20;;;17.40;84.20;;;;;;1997843;28;20671;-75
2022/03/25 02:24:11;;;;;;;11.18;7.35;;;17.40;84.40;;;;;;1997736;28;20368;-74
2022/03/25 02:25:11;;;;;;;11.35;7.15;;;17.40;84.50;;;;;;1997732;28;20188;-74
2022/03/25 02:26:10;;;;;;;18.27;7.85;;;17.40;84.30;;;;;;1997668;28;20181;-74
2022/03/25 02:27:12;;;;;;;12.10;7.50;;;17.40;84.40;;;;;;1997650;28;20205;-74
2022/03/25 02:28:10;;;;;;;10.23;6.97;;;17.40;84.60;;;;;;1997701;28;20500;-74
2022/03/25 02:29:11;;;;;;;11.70;8.23;;;17.40;84.70;;;;;;1997600;28;20190;-73
2022/03/25 02:30:11;;;;;;;18.17;8.25;;;17.40;84.40;;;;;;1997474;28;20704;-73
2022/03/25 02:31:10;;;;;;;15.80;8.25;;;17.40;84.60;;;;;;1997637;28;20190;-74
2022/03/25 02:32:08;;;;;;;13.10;8.23;;;17.40;84.50;;;;;;1997626;28;20197;-74
2022/03/25 02:33:07;;;;;;;14.00;8.57;;;17.40;84.40;;;;;;2005446;28;20309;-74
2022/03/25 02:34:08;;;;;;;16.40;8.45;;;17.40;84.60;;;;;;2005437;28;20563;-74
2022/03/25 02:35:07;;;;;;;9.55;7.35;;;17.40;84.60;;;;;;2005430;28;20178;-74
2022/03/25 02:36:08;;;;;;;11.70;7.83;;;17.40;84.70;;;;;;2005445;28;20165;-75
2022/03/25 02:37:07;;;;;;;11.05;7.53;;;17.40;84.40;;;;;;2005383;28;20435;-73
2022/03/25 02:38:07;;;;;;;11.82;7.40;;;17.40;84.60;;;;;;2005330;28;20184;-74
2022/03/25 02:39:06;;;;;;;11.82;7.35;;;17.40;84.70;;;;;;2005266;28;20644;-74
2022/03/25 02:40:05;;;;;;;16.55;7.70;;;17.40;84.70;;;;;;2005433;28;20173;-75
2022/03/25 02:41:04;;;;;;;10.38;7.25;;;17.40;84.80;;;;;;2005329;28;20169;-73
2022/03/25 02:42:04;;;;;;;13.23;7.72;;;17.40;84.80;;;;;;2005009;28;20197;-73
2022/03/25 02:43:03;;;;;;;11.15;7.47;;;17.40;84.80;;;;;;1996856;28;20608;-74
2022/03/25 02:44:02;;;;;;;10.87;7.30;;;17.40;84.80;;;;;;1996834;28;20174;-73
2022/03/25 02:45:00;;;;;;;12.63;8.23;;;17.40;84.80;;;;;;1996831;28;20210;-73
2022/03/25 02:45:59;;;;;;;12.17;7.80;;;17.40;84.50;;;;;;1996953;28;20258;-74
2022/03/25 02:46:57;;;;;;;13.03;7.50;;;17.40;84.80;;;;;;2004754;28;20593;-74
2022/03/25 02:47:56;;;;;;;12.23;7.90;;;17.40;84.70;;;;;;2005385;28;20188;-74
2022/03/25 02:48:54;;;;;;;14.50;7.20;;;17.40;84.60;;;;;;2005534;28;20169;-74
2022/03/25 02:49:53;;;;;;;15.93;8.00;;;17.40;84.70;;;;;;2005305;28;20165;-74
2022/03/25 02:50:51;;;;;;;12.80;9.40;;;17.40;84.80;;;;;;2005241;28;20199;-76
2022/03/25 02:51:50;;;;;;;12.83;8.03;;;17.40;84.90;;;;;;2005267;28;20616;-73
2022/03/25 02:52:49;;;;;;;13.73;7.57;;;17.40;85.30;;;;;;2005202;28;20717;-74
2022/03/25 02:53:47;;;;;;;11.60;7.50;;;17.40;84.80;;;;;;2005215;28;20193;-74
2022/03/25 02:54:46;;;;;;;11.67;7.67;;;17.30;84.70;;;;;;2005213;28;20181;-74
2022/03/25 02:55:44;;;;;;;13.90;7.27;;;17.40;84.80;;;;;;1996837;28;20299;-74
2022/03/25 02:56:43;;;;;;;11.23;7.33;;;17.40;84.80;;;;;;1996909;28;20174;-74
2022/03/25 02:57:42;;;;;;;15.60;8.50;;;17.30;84.40;;;;;;2004818;28;20181;-74
2022/03/25 02:58:40;;;;;;;10.37;7.13;;;17.30;85.30;;;;;;2005328;28;20179;-74
2022/03/25 02:59:39;;;;;;;11.47;7.47;;;17.30;84.80;;;;;;2005334;28;20177;-74
2022/03/25 03:00:38;;;;;;;11.30;7.40;;;17.30;84.60;;;;;;2005364;28;20636;-74
2022/03/25 03:01:36;;;;;;;11.53;7.40;;;17.40;84.90;;;;;;2005090;28;20692;-73
2022/03/25 03:02:36;;;;;;;9.97;6.90;;;17.30;84.60;;;;;;2005338;28;20165;-74
2022/03/25 03:03:34;;;;;;;8.85;6.68;;;17.30;84.90;;;;;;2005200;28;20169;-74
2022/03/25 03:04:33;;;;;;;11.73;7.87;;;17.30;84.80;;;;;;2005195;28;20544;-74
2022/03/25 03:05:33;;;;;;;13.60;7.50;;;17.30;84.90;;;;;;2005157;28;20328;-74
2022/03/25 03:06:31;;;;;;;13.05;8.02;;;17.30;84.90;;;;;;2005056;28;20165;-74
2022/03/25 03:07:30;;;;;;;13.40;8.00;;;17.30;84.90;;;;;;2005211;28;20237;-74
2022/03/25 03:08:30;;;;;;;12.13;8.40;;;17.30;85.10;;;;;;2005190;28;20174;-74
2022/03/25 03:09:28;;;;;;;12.80;7.50;;;17.30;85.20;;;;;;2005221;28;20536;-74
2022/03/25 03:10:27;;;;;;;12.87;7.53;;;17.30;85.20;;;;;;2005156;28;20212;-74
2022/03/25 03:11:28;;;;;;;12.18;7.90;;;17.30;85.10;;;;;;2005170;28;20280;-73
2022/03/25 03:12:27;;;;;;;16.63;9.18;;;17.30;85.00;;;;;;2004931;28;20193;-74
2022/03/25 03:13:25;;;;;;;11.93;8.70;;;17.30;85.10;;;;;;2005093;28;20165;-75
2022/03/25 03:14:24;;;;;;;10.77;7.33;;;17.30;85.10;;;;;;2005139;28;20181;-73
2022/03/25 03:15:23;;;;;;;12.00;6.97;;;17.30;85.20;;;;;;2005170;28;20223;-73
2022/03/25 03:16:21;;;;;;;15.85;8.43;;;17.30;85.20;;;;;;2005062;28;20169;-73
2022/03/25 03:17:20;;;;;;;17.50;8.50;;;17.30;85.40;;;;;;2005080;28;20181;-73
2022/03/25 03:18:20;;;;;;;13.77;8.30;;;17.30;85.20;;;;;;2004875;28;20172;-74
2022/03/25 03:19:18;;;;;;;12.48;7.95;;;17.30;85.40;;;;;;2005088;28;20176;-74
2022/03/25 03:20:19;;;;;;;15.03;8.40;;;17.30;85.40;;;;;;2005104;28;20256;-74
2022/03/25 03:21:17;;;;;;;13.50;7.50;;;17.30;85.40;;;;;;2004996;28;20165;-74
2022/03/25 03:22:17;;;;;;;17.90;8.77;;;17.30;85.30;;;;;;2004909;28;20565;-73
2022/03/25 03:23:16;;;;;;;11.63;7.57;;;17.30;85.20;;;;;;2005115;28;20232;-73
2022/03/25 03:24:14;;;;;;;12.80;7.97;;;17.30;85.30;;;;;;2005054;28;20315;-74
2022/03/25 03:25:13;;;;;;;13.07;8.07;;;17.30;85.30;;;;;;2005006;28;20177;-74
2022/03/25 03:26:11;;;;;;;12.27;7.53;;;17.30;85.40;;;;;;2005129;28;20208;-74
2022/03/25 03:27:11;;;;;;;11.50;7.40;;;17.30;86.20;;;;;;2005034;28;20177;-75
2022/03/25 03:28:09;;;;;;;14.25;9.10;;;17.30;85.50;;;;;;2004912;28;20200;-76
2022/03/25 03:29:08;;;;;;;18.93;7.03;;;17.30;85.70;;;;;;2004962;28;20196;-73
2022/03/25 03:30:11;;;;;;;9.77;6.97;;;17.30;86.20;;;;;;2005075;28;20254;-74
2022/03/25 03:31:10;;;;;;;16.50;8.73;;;17.30;85.50;;;;;;2004932;28;20181;-74
2022/03/25 03:32:09;;;;;;;14.40;7.23;;;17.30;85.50;;;;;;2004769;28;20205;-75
2022/03/25 03:33:08;;;;;;;12.73;7.27;;;17.30;85.60;;;;;;1997178;28;20488;-74
2022/03/25 03:34:06;;;;;;;13.57;7.30;;;17.30;85.70;;;;;;1997107;28;20822;-74
2022/03/25 03:35:06;;;;;;;10.47;7.07;;;17.30;85.80;;;;;;1997156;28;20174;-74
2022/03/25 03:36:05;;;;;;;15.30;7.60;;;17.30;85.70;;;;;;1997157;28;20548;-75
2022/03/25 03:37:04;;;;;;;12.90;7.47;;;17.30;85.70;;;;;;1997095;28;20178;-74
2022/03/25 03:38:03;;;;;;;22.42;9.38;;;17.30;85.60;;;;;;1997059;28;20233;-75
2022/03/25 03:39:02;;;;;;;12.60;7.85;;;17.30;85.70;;;;;;1997117;28;20750;-74
2022/03/25 03:40:00;;;;;;;10.90;7.10;;;17.30;85.60;;;;;;1997155;28;20165;-74
2022/03/25 03:40:59;;;;;;;12.53;8.00;;;17.30;85.70;;;;;;1997317;28;20178;-74
2022/03/25 03:41:58;;;;;;;13.10;8.53;;;17.30;85.70;;;;;;1988726;28;20182;-75
2022/03/25 03:42:57;;;;;;;11.38;7.50;;;17.30;85.70;;;;;;1988715;28;20189;-75
2022/03/25 03:43:55;;;;;;;13.80;8.20;;;17.30;85.80;;;;;;1996596;28;20174;-74
2022/03/25 03:44:54;;;;;;;10.20;7.27;;;17.30;86.00;;;;;;1996613;28;20169;-74
2022/03/25 03:45:52;;;;;;;16.50;7.90;;;17.20;85.70;;;;;;1996413;28;20185;-74
2022/03/25 03:46:51;;;;;;;13.73;7.73;;;17.20;85.80;;;;;;1998373;28;20181;-74
2022/03/25 03:47:51;;;;;;;15.07;8.33;;;17.30;85.90;;;;;;1999475;28;20272;-74
2022/03/25 03:48:50;;;;;;;12.40;6.95;;;17.30;85.80;;;;;;1999008;28;20174;-74
2022/03/25 03:49:50;;;;;;;11.63;7.23;;;17.20;85.80;;;;;;1998237;28;20646;-74
2022/03/25 03:50:49;;;;;;;9.80;7.20;;;17.30;86.00;;;;;;2004271;28;20405;-74
2022/03/25 03:51:47;;;;;;;10.73;6.63;;;17.30;86.00;;;;;;2005552;28;20198;-74
2022/03/25 03:52:46;;;;;;;11.77;7.70;;;17.30;86.10;;;;;;2005792;28;20233;-74
2022/03/25 03:53:44;;;;;;;13.67;7.30;;;17.30;85.80;;;;;;2005932;28;20178;-74
2022/03/25 03:54:43;;;;;;;10.00;6.40;;;17.30;86.00;;;;;;1998543;28;20181;-73
2022/03/25 03:55:41;;;;;;;11.43;7.20;;;17.20;85.90;;;;;;1989837;28;20178;-74
2022/03/25 03:56:40;;;;;;;9.30;6.90;;;17.30;86.00;;;;;;1989272;28;20548;-74
2022/03/25 03:57:39;;;;;;;14.03;8.27;;;17.30;86.20;;;;;;1996891;28;20518;-74
2022/03/25 03:58:37;;;;;;;10.80;7.30;;;17.30;86.20;;;;;;1997194;28;20166;-74
2022/03/25 03:59:36;;;;;;;12.03;6.60;;;17.30;86.20;;;;;;1997005;28;20170;-73
2022/03/25 04:00:34;;;;;;;11.33;7.20;;;17.30;86.20;;;;;;1997263;28;20208;-74
2022/03/25 04:01:34;;;;;;;11.47;7.17;;;17.30;86.30;;;;;;1996954;28;20556;-74
2022/03/25 04:02:33;;;;;;;13.50;7.80;;;17.30;86.40;;;;;;1997104;28;20235;-74
2022/03/25 04:03:31;;;;;;;14.80;9.03;;;17.20;86.30;;;;;;1996992;28;20185;-74
2022/03/25 04:04:30;;;;;;;12.10;7.10;;;17.30;86.40;;;;;;1988527;28;20189;-74
2022/03/25 04:05:28;;;;;;;13.77;7.77;;;17.30;86.50;;;;;;1988694;28;20178;-74
2022/03/25 04:06:27;;;;;;;13.17;7.47;;;17.30;86.50;;;;;;1996317;28;20273;-73
2022/03/25 04:07:25;;;;;;;12.53;6.63;;;17.20;86.30;;;;;;1988516;28;20306;-73
2022/03/25 04:08:24;;;;;;;11.70;7.43;;;17.20;86.40;;;;;;1988613;28;20170;-73
2022/03/25 04:09:23;;;;;;;12.50;8.17;;;17.20;86.50;;;;;;1996431;28;20244;-73
2022/03/25 04:10:21;;;;;;;13.10;8.10;;;17.20;86.10;;;;;;1996859;28;20180;-73
2022/03/25 04:11:19;;;;;;;11.10;7.10;;;17.20;86.50;;;;;;1997001;28;20257;-73
2022/03/25 04:12:18;;;;;;;13.03;7.47;;;17.20;86.40;;;;;;1996807;28;20224;-73
2022/03/25 04:13:16;;;;;;;10.70;6.50;;;17.20;86.50;;;;;;1997060;28;20273;-73
2022/03/25 04:14:15;;;;;;;10.90;6.60;;;17.20;86.60;;;;;;1996960;28;20254;-74
2022/03/25 04:15:15;;;;;;;11.13;7.73;;;17.20;86.70;;;;;;1996840;28;20245;-74
2022/03/25 04:16:14;;;;;;;9.45;6.95;;;17.20;86.80;;;;;;1996903;28;20170;-74
2022/03/25 04:17:12;;;;;;;12.20;8.07;;;17.20;86.80;;;;;;1996323;28;20182;-74
2022/03/25 04:18:11;;;;;;;12.33;7.90;;;17.20;86.70;;;;;;1996819;28;20170;-74
2022/03/25 04:19:10;;;;;;;12.53;6.90;;;17.20;86.70;;;;;;1997621;28;20185;-74
2022/03/25 04:20:11;;;;;;;12.95;8.18;;;17.20;86.70;;;;;;1988857;28;20179;-73
2022/03/25 04:21:10;;;;;;;12.13;7.20;;;17.20;86.70;;;;;;1988487;28;20261;-73
2022/03/25 04:22:09;;;;;;;10.15;7.35;;;17.30;86.90;;;;;;1996692;28;20204;-76
2022/03/25 04:23:08;;;;;;;12.57;8.20;;;17.20;86.80;;;;;;1996929;28;20184;-75
2022/03/25 04:24:06;;;;;;;13.00;8.37;;;17.20;86.90;;;;;;1996871;28;20587;-74
2022/03/25 04:25:07;;;;;;;12.43;7.53;;;17.20;86.70;;;;;;1996818;28;20257;-74
2022/03/25 04:26:05;;;;;;;12.75;8.50;;;17.20;86.60;;;;;;1996772;28;20162;-74
2022/03/25 04:27:04;;;;;;;10.70;8.10;;;17.20;86.80;;;;;;1996718;28;20213;-74
2022/03/25 04:28:03;;;;;;;11.67;7.20;;;17.20;86.90;;;;;;1996741;28;20178;-74
2022/03/25 04:29:02;;;;;;;9.60;7.07;;;17.20;87.00;;;;;;1996739;28;20178;-75
2022/03/25 04:30:00;;;;;;;11.10;7.65;;;17.20;87.20;;;;;;1988242;28;20557;-75
2022/03/25 04:30:59;;;;;;;13.33;8.00;;;17.20;87.10;;;;;;1988292;28;20217;-74
2022/03/25 04:31:58;;;;;;;11.27;7.73;;;17.20;87.10;;;;;;1996083;28;20197;-74
2022/03/25 04:32:58;;;;;;;11.07;7.97;;;17.20;87.30;;;;;;1996423;28;20233;-74
2022/03/25 04:33:57;;;;;;;19.67;7.47;;;17.10;86.90;;;;;;1988345;28;20174;-74
2022/03/25 04:34:55;;;;;;;11.83;7.50;;;17.20;87.10;;;;;;1988383;28;20174;-74
2022/03/25 04:35:54;;;;;;;10.37;7.27;;;17.20;87.40;;;;;;1996205;28;20181;-74
2022/03/25 04:36:52;;;;;;;9.80;6.90;;;17.20;87.40;;;;;;1996785;28;20177;-74
2022/03/25 04:37:52;;;;;;;11.90;7.97;;;17.20;87.40;;;;;;1996785;28;20170;-74
2022/03/25 04:38:51;;;;;;;13.48;8.30;;;17.20;87.40;;;;;;1996673;28;20185;-74
2022/03/25 04:39:49;;;;;;;14.23;7.50;;;17.10;87.40;;;;;;1996799;28;20181;-73
2022/03/25 04:40:48;;;;;;;14.23;8.30;;;17.20;87.50;;;;;;1996625;28;20615;-74
2022/03/25 04:41:46;;;;;;;10.77;6.97;;;17.10;87.50;;;;;;1996600;28;20305;-74
2022/03/25 04:42:46;;;;;;;11.00;7.50;;;17.10;87.30;;;;;;1996497;28;20702;-74
2022/03/25 04:43:45;;;;;;;10.70;7.35;;;17.20;87.50;;;;;;1996496;28;20170;-74
2022/03/25 04:44:43;;;;;;;10.20;7.80;;;17.20;87.60;;;;;;1996524;28;20265;-75
2022/03/25 04:45:42;;;;;;;12.17;6.97;;;17.20;87.40;;;;;;1996683;28;20536;-74
2022/03/25 04:46:40;;;;;;;14.53;7.70;;;17.20;87.50;;;;;;1996574;28;20705;-74
2022/03/25 04:47:39;;;;;;;10.67;7.57;;;17.20;87.70;;;;;;1996861;28;20220;-74
2022/03/25 04:48:38;;;;;;;12.17;7.60;;;17.10;87.70;;;;;;1996668;28;20259;-74
2022/03/25 04:49:36;;;;;;;14.97;8.50;;;17.10;87.90;;;;;;1996780;28;20420;-74
2022/03/25 04:50:35;;;;;;;14.60;8.40;;;17.10;87.90;;;;;;1996734;28;20554;-74
2022/03/25 04:51:33;;;;;;;12.63;7.20;;;17.10;87.90;;;;;;1996516;28;20177;-74
2022/03/25 04:52:32;;;;;;;10.93;7.23;;;17.10;87.90;;;;;;1996478;28;20603;-74
2022/03/25 04:53:32;;;;;;;11.43;7.60;;;17.20;88.10;;;;;;1996502;28;20611;-74
2022/03/25 04:54:30;;;;;;;9.75;6.72;;;17.20;88.10;;;;;;1996617;28;20276;-74
2022/03/25 04:55:29;;;;;;;11.77;7.60;;;17.20;88.10;;;;;;1996527;28;20186;-74
2022/03/25 04:56:27;;;;;;;11.97;7.47;;;17.20;88.30;;;;;;1996497;28;20174;-74
2022/03/25 04:57:26;;;;;;;9.73;6.43;;;17.20;88.30;;;;;;1988147;28;20171;-74
2022/03/25 04:58:25;;;;;;;10.00;7.03;;;17.20;88.10;;;;;;1988328;28;20261;-74
2022/03/25 04:59:23;;;;;;;11.73;7.10;;;17.20;88.30;;;;;;1996244;28;20240;-74
2022/03/25 05:00:22;;;;;;;10.40;7.47;;;17.20;88.10;;;;;;1996438;28;20206;-74
2022/03/25 05:01:20;;;;;;;11.90;8.00;;;17.10;88.30;;;;;;1996551;28;20232;-74
2022/03/25 05:02:20;;;;;;;10.70;7.10;;;17.20;89.10;;;;;;1996671;28;20440;-74
2022/03/25 05:03:19;;;;;;;13.73;7.50;;;17.10;88.60;;;;;;1996586;28;20174;-73